Time;durP1;ratioP1;P1;durP2;ratioP2;P2;SDS_P1;SDS_P2;PMS_P1;PMS_P2;Temp;Humidity;BMP_temperature;BMP_pressure;BME280_temperature;BME280_humidity;BME280_pressure;Samples;Min_cycle;Max_cycle;Signal;HPM_P1;HPM_P2
2022/02/02 00:00:41;;;;;;;51.53;8.48;;;6.00;99.90;;;;;;5020424;28;20037;-74
2022/02/02 00:03:10;;;;;;;50.40;7.22;;;6.00;99.90;;;;;;5021099;28;20038;-75
2022/02/02 00:14:17;;;;;;;50.85;8.52;;;6.10;99.90;;;;;;5020703;28;20382;-74
2022/02/02 00:18:48;;;;;;;58.10;8.57;;;6.20;99.90;;;;;;5020606;28;20495;-74
2022/02/02 00:21:24;;;;;;;58.25;8.02;;;6.20;99.90;;;;;;5020980;28;20034;-75
2022/02/02 00:23:55;;;;;;;58.40;8.95;;;6.20;99.90;;;;;;5020646;28;20096;-74
2022/02/02 00:26:27;;;;;;;53.92;8.93;;;6.20;99.90;;;;;;5019400;28;20037;-74
2022/02/02 00:28:58;;;;;;;65.65;9.23;;;6.20;99.90;;;;;;5003456;28;20025;-75
2022/02/02 00:31:30;;;;;;;;;;;6.20;99.90;;;;;;5021253;28;20146;-74
2022/02/02 00:34:01;;;;;;;52.17;8.57;;;6.20;99.90;;;;;;5019723;28;19909;-75
2022/02/02 00:36:35;;;;;;;56.88;9.07;;;6.20;99.90;;;;;;4984874;28;20049;-74
2022/02/02 00:39:00;;;;;;;57.10;7.88;;;6.20;99.90;;;;;;5020485;28;20509;-75
2022/02/02 00:41:26;;;;;;;62.00;8.77;;;6.20;99.90;;;;;;5002926;28;20030;-74
2022/02/02 00:43:58;;;;;;;55.15;7.93;;;6.10;99.90;;;;;;5020926;28;20036;-75
2022/02/02 00:46:26;;;;;;;46.60;7.32;;;6.10;99.90;;;;;;5023457;28;20110;-74
2022/02/02 00:49:00;;;;;;;39.30;6.13;;;6.10;99.90;;;;;;5019449;28;20030;-75
2022/02/02 00:51:53;;;;;;;42.83;8.32;;;6.10;99.90;;;;;;5000840;28;20032;-73
2022/02/02 00:54:21;;;;;;;35.38;6.70;;;6.10;99.90;;;;;;5001858;28;20320;-75
2022/02/02 00:56:48;;;;;;;31.42;5.68;;;6.00;99.90;;;;;;5001853;28;20033;-74
2022/02/02 00:59:14;;;;;;;50.20;7.13;;;6.00;99.90;;;;;;4985545;28;20038;-74
2022/02/02 01:01:40;;;;;;;49.00;7.07;;;5.90;99.90;;;;;;5026929;28;20137;-75
2022/02/02 01:04:06;;;;;;;49.70;7.53;;;5.90;99.90;;;;;;5006090;28;20582;-74
2022/02/02 01:06:36;;;;;;;43.83;7.57;;;5.80;99.90;;;;;;5021877;28;20092;-74
2022/02/02 01:19:42;;;;;;;46.70;8.20;;;5.80;99.90;;;;;;5007444;28;20407;-75
2022/02/02 01:30:09;;;;;;;60.05;8.55;;;5.80;99.90;;;;;;5024192;28;20030;-75
2022/02/02 01:32:35;;;;;;;51.65;7.63;;;5.90;99.90;;;;;;5024837;28;20026;-74
2022/02/02 01:35:01;;;;;;;60.92;8.82;;;5.90;99.90;;;;;;5024652;28;20035;-74
2022/02/02 01:37:28;;;;;;;50.92;7.80;;;5.90;99.90;;;;;;5021782;28;20084;-75
2022/02/02 01:40:04;;;;;;;41.97;7.18;;;5.90;99.90;;;;;;5024915;28;20041;-75
2022/02/02 01:42:37;;;;;;;52.03;8.13;;;5.90;99.90;;;;;;5024257;28;20083;-75
2022/02/02 01:45:17;;;;;;;49.15;7.00;;;5.90;99.90;;;;;;5024851;28;20026;-74
2022/02/02 01:50:43;;;;;;;48.22;7.57;;;5.80;99.90;;;;;;4998088;28;20388;-75
2022/02/02 01:55:54;;;;;;;31.50;5.35;;;5.80;99.90;;;;;;5021667;28;20262;-75
2022/02/02 01:58:38;;;;;;;43.53;5.25;;;5.80;99.90;;;;;;5027629;28;20033;-74
2022/02/02 02:01:07;;;;;;;33.47;5.53;;;5.70;99.90;;;;;;5025077;28;20029;-76
2022/02/02 02:03:33;;;;;;;32.08;5.85;;;5.80;99.90;;;;;;5024435;28;20495;-75
2022/02/02 02:05:59;;;;;;;37.17;5.40;;;5.80;99.90;;;;;;5022429;28;20513;-75
2022/02/02 02:08:25;;;;;;;39.33;6.50;;;5.80;99.90;;;;;;5023887;28;20026;-74
2022/02/02 02:10:51;;;;;;;38.88;5.35;;;5.80;99.90;;;;;;4989811;28;20475;-75
2022/02/02 02:15:44;;;;;;;33.03;4.85;;;5.90;99.90;;;;;;5023437;28;20033;-76
2022/02/02 02:18:11;;;;;;;33.55;4.80;;;5.80;99.90;;;;;;5022397;28;20054;-75
2022/02/02 02:20:37;;;;;;;31.80;5.00;;;5.80;99.90;;;;;;5001468;28;20029;-75
2022/02/02 02:23:03;;;;;;;40.08;6.57;;;5.80;99.90;;;;;;5022917;28;20045;-75
2022/02/02 02:25:32;;;;;;;39.83;4.75;;;5.80;99.90;;;;;;5020800;28;20029;-75
2022/02/02 02:28:14;;;;;;;29.27;4.63;;;5.80;99.90;;;;;;5022858;28;20052;-75
2022/02/02 02:30:49;;;;;;;31.05;5.03;;;5.70;99.90;;;;;;5023327;28;20026;-75
2022/02/02 02:33:52;;;;;;;32.17;4.70;;;5.80;99.90;;;;;;5022525;28;20033;-75
2022/02/02 02:37:05;;;;;;;31.23;4.82;;;5.70;99.90;;;;;;5020102;28;20475;-74
2022/02/02 02:39:24;;;;;;;29.58;4.82;;;5.70;99.90;;;;;;5015053;28;20539;-74
2022/02/02 04:02:44;;;;;;;26.50;5.65;;;6.00;99.90;;;;;;5020668;28;20034;-73
2022/02/02 04:05:29;;;;;;;29.48;4.10;;;6.00;99.90;;;;;;5021223;28;20033;-73
2022/02/02 04:07:54;;;;;;;19.13;4.10;;;6.00;99.90;;;;;;5022932;28;20021;-73
2022/02/02 04:10:20;;;;;;;31.13;5.55;;;6.00;99.90;;;;;;5003787;28;20021;-72
2022/02/02 04:13:07;;;;;;;29.27;5.55;;;6.00;99.90;;;;;;5021213;28;20506;-74
2022/02/02 04:37:19;;;;;;;33.70;4.50;;;6.00;99.90;;;;;;5022267;28;20039;-75
2022/02/02 05:06:54;;;;;;;28.90;5.55;;;6.00;99.90;;;;;;5024456;28;20026;-72
2022/02/02 05:17:17;;;;;;;32.83;4.82;;;6.00;99.90;;;;;;5003862;28;20060;-74
2022/02/02 05:51:50;;;;;;;29.77;4.00;;;6.00;99.90;;;;;;5022139;28;20056;-74
2022/02/02 05:54:17;;;;;;;21.63;3.70;;;6.00;99.90;;;;;;5019756;28;20459;-74
2022/02/02 05:56:47;;;;;;;22.85;3.88;;;6.00;99.90;;;;;;5021876;28;20033;-73
2022/02/02 05:59:16;;;;;;;20.95;3.95;;;6.00;99.90;;;;;;5022332;28;20040;-74
2022/02/02 06:01:49;;;;;;;18.20;3.13;;;5.90;99.90;;;;;;5023399;28;20033;-73
2022/02/02 06:04:22;;;;;;;25.30;4.55;;;5.90;99.90;;;;;;5022113;28;20041;-74
2022/02/02 06:06:49;;;;;;;25.42;4.15;;;5.90;99.90;;;;;;5023018;28;21359;-72
2022/02/02 06:09:15;;;;;;;22.33;3.60;;;5.80;99.90;;;;;;5022147;28;20036;-73
2022/02/02 06:11:42;;;;;;;22.95;3.00;;;5.80;99.90;;;;;;5005203;28;20391;-74
2022/02/02 06:14:09;;;;;;;25.48;3.72;;;5.80;99.90;;;;;;5024532;28;20140;-72
2022/02/02 06:16:36;;;;;;;22.25;3.13;;;5.80;99.90;;;;;;5002739;28;20049;-72
2022/02/02 06:19:02;;;;;;;26.65;3.88;;;5.80;99.90;;;;;;5026385;28;20034;-73
2022/02/02 06:21:34;;;;;;;18.55;3.17;;;5.80;99.90;;;;;;5007091;28;20032;-72
2022/02/02 06:24:29;;;;;;;24.77;3.10;;;5.80;99.90;;;;;;5022053;28;20487;-74
2022/02/02 06:27:01;;;;;;;20.92;3.35;;;5.80;99.90;;;;;;4999797;28;20025;-73
2022/02/02 06:29:32;;;;;;;16.10;2.75;;;5.80;99.90;;;;;;5024798;28;20033;-74
2022/02/02 06:32:00;;;;;;;22.05;3.67;;;5.80;99.90;;;;;;5024252;28;20488;-73
2022/02/02 06:34:28;;;;;;;21.88;3.85;;;5.80;99.90;;;;;;4988574;28;20076;-74
2022/02/02 06:36:59;;;;;;;28.63;3.78;;;5.70;99.90;;;;;;5021963;28;20044;-75
2022/02/02 06:39:26;;;;;;;25.95;3.78;;;5.70;99.90;;;;;;5003733;28;20100;-74
2022/02/02 06:41:56;;;;;;;19.65;4.40;;;5.70;99.90;;;;;;5021013;28;20033;-74
2022/02/02 06:44:24;;;;;;;39.92;4.07;;;5.70;99.90;;;;;;5003445;28;20029;-74
2022/02/02 06:46:51;;;;;;;20.60;3.03;;;5.70;99.90;;;;;;5004875;28;20108;-75
2022/02/02 06:49:19;;;;;;;23.40;3.53;;;5.70;99.90;;;;;;5020747;28;20025;-74
2022/02/02 06:51:58;;;;;;;25.80;4.70;;;5.70;99.90;;;;;;5024906;28;20515;-74
2022/02/02 06:54:56;;;;;;;27.35;3.45;;;5.80;99.90;;;;;;5024132;28;20046;-74
2022/02/02 06:57:41;;;;;;;25.58;3.83;;;5.80;99.90;;;;;;5021239;28;20030;-76
2022/02/02 07:00:37;;;;;;;32.38;4.07;;;5.80;99.90;;;;;;5005006;28;20039;-75
2022/02/02 07:06:38;;;;;;;20.55;3.00;;;5.70;99.90;;;;;;4998006;28;20033;-75
2022/02/02 07:09:22;;;;;;;22.40;2.78;;;5.80;99.90;;;;;;5020574;28;20026;-75
2022/02/02 07:12:00;;;;;;;23.10;3.88;;;5.80;99.90;;;;;;5002855;28;20105;-76
2022/02/02 07:19:54;;;;;;;24.77;3.60;;;5.80;99.90;;;;;;5025538;28;20044;-74
2022/02/02 07:23:00;;;;;;;24.48;3.67;;;5.80;99.90;;;;;;5026257;28;20436;-74
2022/02/02 07:25:39;;;;;;;;;;;5.70;99.90;;;;;;5027076;28;20120;-74
2022/02/02 07:33:28;;;;;;;31.63;3.45;;;5.70;99.90;;;;;;5022111;28;20029;-74
2022/02/02 07:39:01;;;;;;;30.63;4.63;;;5.70;99.90;;;;;;5021373;28;20577;-74
2022/02/02 07:41:32;;;;;;;25.00;3.90;;;5.60;99.90;;;;;;5001803;28;20038;-74
2022/02/02 07:44:07;;;;;;;22.77;3.80;;;5.70;99.90;;;;;;5007270;28;20038;-75
2022/02/02 07:46:35;;;;;;;24.75;4.13;;;5.60;99.90;;;;;;5013205;28;20025;-74
2022/02/02 07:49:02;;;;;;;37.40;4.25;;;5.60;99.90;;;;;;5007543;28;20022;-75
2022/02/02 07:51:30;;;;;;;26.95;4.20;;;5.60;99.90;;;;;;5025411;28;20042;-73
2022/02/02 07:54:01;;;;;;;24.77;4.28;;;5.60;99.90;;;;;;5019846;28;20575;-73
2022/02/02 07:56:34;;;;;;;24.83;4.35;;;5.70;99.90;;;;;;5003991;28;20455;-74
2022/02/02 07:59:14;;;;;;;27.17;4.07;;;5.70;99.90;;;;;;5019520;28;20061;-74
2022/02/02 08:01:42;;;;;;;30.67;4.37;;;5.70;99.90;;;;;;5022603;28;20100;-74
2022/02/02 08:04:08;;;;;;;24.23;4.22;;;5.70;99.90;;;;;;5004391;28;20297;-76
2022/02/02 08:06:36;;;;;;;24.92;3.55;;;5.70;99.90;;;;;;5022857;28;20017;-73
2022/02/02 08:09:01;;;;;;;27.95;3.45;;;5.80;99.90;;;;;;5004999;28;20108;-76
2022/02/02 08:11:31;;;;;;;45.28;5.00;;;5.80;99.90;;;;;;5003489;28;20155;-76
2022/02/02 08:14:00;;;;;;;15.63;2.85;;;5.70;99.90;;;;;;5002069;28;20094;-76
2022/02/02 08:16:26;;;;;;;16.27;3.13;;;5.80;99.90;;;;;;4999908;28;20067;-76
2022/02/02 08:18:54;;;;;;;23.40;3.85;;;5.80;99.90;;;;;;5021693;28;20402;-75
2022/02/02 08:21:20;;;;;;;23.60;3.30;;;5.80;99.90;;;;;;5021593;28;20044;-75
2022/02/02 08:23:46;;;;;;;26.75;3.85;;;5.80;99.90;;;;;;5019315;28;20281;-75
2022/02/02 08:26:16;;;;;;;26.95;4.07;;;5.80;99.90;;;;;;5004684;28;20033;-75
2022/02/02 08:28:46;;;;;;;23.15;3.95;;;5.90;99.90;;;;;;5020081;28;20361;-74
2022/02/02 08:31:13;;;;;;;20.20;3.00;;;5.80;99.90;;;;;;5005452;28;20095;-75
2022/02/02 08:33:43;;;;;;;24.55;3.88;;;5.80;99.90;;;;;;5020825;28;20045;-74
2022/02/02 08:36:12;;;;;;;17.73;3.67;;;5.90;99.90;;;;;;5021335;28;20538;-74
2022/02/02 08:41:35;;;;;;;24.60;3.63;;;5.90;99.90;;;;;;5020472;28;20044;-75
2022/02/02 08:44:15;;;;;;;21.77;3.95;;;5.90;99.90;;;;;;5002443;28;20113;-74
2022/02/02 08:46:47;;;;;;;26.75;3.53;;;5.90;99.90;;;;;;5023273;28;20030;-75
2022/02/02 08:49:15;;;;;;;19.83;3.63;;;5.90;99.90;;;;;;5020481;28;20040;-75
2022/02/02 08:51:45;;;;;;;19.13;3.47;;;6.00;99.90;;;;;;5020575;28;20025;-75
2022/02/02 08:54:20;;;;;;;27.35;3.78;;;6.00;99.90;;;;;;5000560;28;20052;-75
2022/02/02 08:59:38;;;;;;;20.60;3.53;;;6.00;99.90;;;;;;5019100;28;20038;-77
2022/02/02 09:02:08;;;;;;;19.10;3.92;;;6.00;99.90;;;;;;5022034;28;20498;-76
2022/02/02 09:07:18;;;;;;;23.48;3.35;;;6.00;99.90;;;;;;5016472;28;20026;-76
2022/02/02 09:26:02;;;;;;;24.42;3.33;;;6.00;99.90;;;;;;5006920;28;20479;-75
2022/02/02 09:36:31;;;;;;;16.98;3.80;;;6.10;99.90;;;;;;5021877;28;20068;-75
2022/02/02 09:39:00;;;;;;;24.60;4.47;;;6.20;99.90;;;;;;5004640;28;20029;-75
2022/02/02 09:41:38;;;;;;;22.23;3.88;;;6.20;99.90;;;;;;5021996;28;20036;-75
2022/02/02 09:44:07;;;;;;;16.02;3.15;;;6.20;99.90;;;;;;5022605;28;20044;-75
2022/02/02 09:49:11;;;;;;;15.27;3.67;;;6.30;99.90;;;;;;5022886;28;20382;-75
2022/02/02 09:51:43;;;;;;;22.80;3.45;;;6.40;99.90;;;;;;5022373;28;20454;-76
2022/02/02 09:54:19;;;;;;;18.17;3.15;;;6.40;99.90;;;;;;5005365;28;20032;-75
2022/02/02 10:10:48;;;;;;;16.83;2.75;;;6.60;99.90;;;;;;5007032;28;20076;-76
2022/02/02 10:13:21;;;;;;;18.45;3.55;;;6.60;99.90;;;;;;5020415;28;20067;-76
2022/02/02 10:15:49;;;;;;;21.98;3.25;;;6.60;99.90;;;;;;5023070;28;20496;-75
2022/02/02 10:18:18;;;;;;;16.05;2.90;;;6.70;99.90;;;;;;5022997;28;20025;-75
2022/02/02 10:20:45;;;;;;;18.88;4.18;;;6.70;99.90;;;;;;5024289;28;20052;-76
2022/02/02 10:23:11;;;;;;;19.30;2.38;;;6.70;99.90;;;;;;5021059;28;20041;-76
2022/02/02 10:25:40;;;;;;;16.27;2.55;;;6.70;99.90;;;;;;5022662;28;20025;-76
2022/02/02 10:28:17;;;;;;;15.45;3.45;;;6.80;99.90;;;;;;5021367;28;20112;-76
2022/02/02 10:30:48;;;;;;;17.00;2.70;;;6.80;99.90;;;;;;5020682;28;20087;-76
2022/02/02 10:33:17;;;;;;;16.20;3.10;;;6.80;99.90;;;;;;5022905;28;20480;-74
2022/02/02 10:35:45;;;;;;;23.38;3.50;;;6.80;99.90;;;;;;5027640;28;20316;-75
2022/02/02 10:38:17;;;;;;;14.63;3.05;;;6.80;99.90;;;;;;5032313;28;20120;-76
2022/02/02 10:40:53;;;;;;;14.85;2.38;;;6.90;99.90;;;;;;5022537;28;20026;-76
2022/02/02 10:43:20;;;;;;;26.17;3.72;;;6.80;99.90;;;;;;5024059;28;20064;-76
2022/02/02 10:45:46;;;;;;;18.02;3.03;;;6.80;99.90;;;;;;5021563;28;20125;-76
2022/02/02 10:48:30;;;;;;;21.42;3.25;;;6.90;99.90;;;;;;5023361;28;20403;-76
2022/02/02 10:51:04;;;;;;;17.40;2.65;;;6.90;99.90;;;;;;5004797;28;20025;-76
2022/02/02 11:07:23;;;;;;;19.35;3.03;;;7.10;99.90;;;;;;5023091;28;20048;-75
2022/02/02 11:09:49;;;;;;;15.48;2.17;;;7.20;99.90;;;;;;5027902;28;20105;-75
2022/02/02 11:12:19;;;;;;;18.50;3.65;;;7.20;99.90;;;;;;5029147;28;20116;-75
2022/02/02 11:15:06;;;;;;;11.55;2.45;;;7.10;99.90;;;;;;5028551;28;20030;-75
2022/02/02 11:17:48;;;;;;;13.50;2.53;;;7.10;99.90;;;;;;5019733;28;20036;-75
2022/02/02 11:20:15;;;;;;;11.65;2.20;;;7.20;99.90;;;;;;5027411;28;20030;-75
2022/02/02 11:22:51;;;;;;;18.08;3.40;;;7.20;99.90;;;;;;5023501;28;20040;-75
2022/02/02 11:25:23;;;;;;;14.00;2.58;;;7.30;99.90;;;;;;5002898;28;20069;-75
2022/02/02 11:27:55;;;;;;;22.05;3.08;;;7.30;99.90;;;;;;5004086;28;20049;-74
2022/02/02 11:30:23;;;;;;;10.18;2.20;;;7.30;99.90;;;;;;5021920;28;20036;-75
2022/02/02 11:33:19;;;;;;;12.30;2.63;;;7.40;99.90;;;;;;5020146;28;20123;-74
2022/02/02 11:35:46;;;;;;;13.93;2.72;;;7.40;99.90;;;;;;5003454;28;20037;-75
2022/02/02 11:38:21;;;;;;;8.57;1.95;;;7.50;99.90;;;;;;5000876;28;20606;-76
2022/02/02 11:44:01;;;;;;;14.85;2.40;;;7.50;99.90;;;;;;5022429;28;20336;-75
2022/02/02 11:46:40;;;;;;;10.95;2.80;;;7.50;99.90;;;;;;5002880;28;20033;-75
2022/02/02 11:49:18;;;;;;;16.52;2.80;;;7.40;99.90;;;;;;5020745;28;20037;-75
2022/02/02 11:51:58;;;;;;;16.67;2.20;;;7.40;99.90;;;;;;5020077;28;21636;-75
2022/02/02 11:54:42;;;;;;;16.55;3.20;;;7.30;99.90;;;;;;5022143;28;20025;-74
2022/02/02 11:57:16;;;;;;;16.25;2.42;;;7.30;99.90;;;;;;5019684;28;20037;-75
2022/02/02 12:00:01;;;;;;;11.15;2.53;;;7.30;99.90;;;;;;5022082;28;20361;-75
2022/02/02 12:10:51;;;;;;;19.10;3.35;;;7.20;99.90;;;;;;5002114;28;20123;-73
2022/02/02 13:00:13;;;;;;;16.20;2.83;;;7.20;99.90;;;;;;5028707;28;20510;-74
2022/02/02 13:02:45;;;;;;;14.75;2.40;;;7.20;99.90;;;;;;5011159;28;20029;-77
2022/02/02 13:05:11;;;;;;;11.65;2.50;;;7.20;99.90;;;;;;5007375;28;20077;-76
2022/02/02 13:07:40;;;;;;;8.07;2.00;;;7.20;99.90;;;;;;5013367;28;20029;-77
2022/02/02 13:10:09;;;;;;;13.93;2.35;;;7.30;99.90;;;;;;5033357;28;20021;-76
2022/02/02 13:13:28;;;;;;;11.43;2.38;;;7.40;99.90;;;;;;5015786;28;20021;-76
2022/02/02 13:15:42;;;;;;;13.48;5.13;;;7.50;99.90;;;;;;5006209;28;20034;-76
2022/02/02 13:20:53;;;;;;;165.38;94.00;;;7.60;99.90;;;;;;5029189;28;20022;-76
2022/02/02 13:24:05;;;;;;;21.50;5.78;;;7.60;99.90;;;;;;5028194;28;20109;-76
2022/02/02 13:27:02;;;;;;;9.55;1.92;;;7.70;99.90;;;;;;5031646;28;20017;-75
2022/02/02 13:29:36;;;;;;;;;;;7.60;99.90;;;;;;5026484;28;20073;-76
2022/02/02 13:32:11;;;;;;;12.52;1.80;;;7.50;99.90;;;;;;5034638;28;19909;-75
2022/02/02 14:01:51;;;;;;;16.13;3.25;;;6.90;99.90;;;;;;5029802;28;20025;-74
2022/02/02 14:04:33;;;;;;;15.07;2.10;;;6.90;99.90;;;;;;5028003;28;20040;-73
2022/02/02 14:09:38;;;;;;;10.45;2.17;;;6.80;99.90;;;;;;5012847;28;20124;-77
2022/02/02 14:26:08;;;;;;;12.25;2.05;;;6.90;99.90;;;;;;5031927;28;20033;-73
2022/02/02 14:31:23;;;;;;;16.73;1.92;;;6.80;99.90;;;;;;5027473;28;20041;-75
2022/02/02 14:33:52;;;;;;;20.02;2.03;;;6.80;99.90;;;;;;5025420;28;20116;-74
2022/02/02 14:36:22;;;;;;;10.95;2.22;;;6.80;99.90;;;;;;5027262;28;20047;-73
2022/02/02 14:44:22;;;;;;;14.95;1.75;;;6.80;99.90;;;;;;5029712;28;20030;-76
2022/02/02 14:46:41;;;;;;;7.97;1.50;;;6.90;99.90;;;;;;5006384;28;20034;-75
2022/02/02 14:49:23;;;;;;;14.07;1.67;;;6.80;99.90;;;;;;5027304;28;20546;-74
2022/02/02 14:52:04;;;;;;;;;;;6.80;99.90;;;;;;5027585;28;20026;-73
2022/02/02 15:32:00;;;;;;;14.15;1.88;;;6.00;99.90;;;;;;5030467;28;20030;-73
2022/02/02 15:34:33;;;;;;;9.25;1.95;;;5.90;99.90;;;;;;5011344;28;20026;-73
2022/02/02 15:37:23;;;;;;;11.23;2.35;;;5.90;99.90;;;;;;5025348;28;20040;-74
2022/02/02 15:42:35;;;;;;;14.45;2.10;;;5.70;99.90;;;;;;5023919;28;20252;-74
2022/02/02 15:58:54;;;;;;;13.77;2.33;;;5.70;99.90;;;;;;4960950;28;20102;-75
2022/02/02 16:04:10;;;;;;;14.45;2.38;;;5.60;99.90;;;;;;5002143;28;20049;-74
2022/02/02 16:06:36;;;;;;;18.23;2.40;;;5.60;99.90;;;;;;5030441;28;20484;-73
2022/02/02 16:09:26;;;;;;;19.10;2.85;;;5.60;99.90;;;;;;5033952;28;20025;-74
2022/02/02 16:12:05;;;;;;;11.13;2.45;;;5.70;99.90;;;;;;5025461;28;20031;-74
2022/02/02 16:14:38;;;;;;;20.05;3.65;;;5.70;99.90;;;;;;5032294;28;20061;-75
2022/02/02 16:17:22;;;;;;;16.33;3.35;;;5.70;99.90;;;;;;5029908;28;20527;-74
2022/02/02 16:36:04;;;;;;;12.82;2.20;;;5.50;99.90;;;;;;5033392;28;20021;-75
2022/02/02 16:38:33;;;;;;;15.70;2.35;;;5.50;99.90;;;;;;5035521;28;20389;-75
2022/02/02 16:41:03;;;;;;;18.42;2.85;;;5.50;99.90;;;;;;5037019;28;20367;-75
2022/02/02 16:43:29;;;;;;;15.82;3.08;;;5.50;99.90;;;;;;5033447;28;20442;-75
2022/02/02 16:45:55;;;;;;;22.85;2.75;;;5.40;99.90;;;;;;5018521;28;20068;-74
2022/02/02 16:48:22;;;;;;;18.17;3.45;;;5.40;99.90;;;;;;5037449;28;20064;-75
2022/02/02 16:50:51;;;;;;;23.67;3.60;;;5.40;99.90;;;;;;5014769;28;20048;-74
2022/02/02 16:55:52;;;;;;;23.05;3.08;;;5.40;99.90;;;;;;5027068;28;20029;-76
2022/02/02 17:33:22;;;;;;;13.82;2.38;;;5.10;99.90;;;;;;5027307;28;20488;-75
2022/02/02 17:38:33;;;;;;;20.25;2.90;;;5.10;99.90;;;;;;5026461;28;20455;-73
2022/02/02 17:41:13;;;;;;;27.50;3.92;;;5.10;99.90;;;;;;5034485;28;20112;-73
2022/02/02 18:00:38;;;;;;;19.35;3.17;;;5.00;99.90;;;;;;5026109;28;20025;-75
2022/02/02 18:15:01;;;;;;;15.50;2.92;;;4.90;99.90;;;;;;5034167;28;20034;-77
2022/02/02 18:19:24;;;;;;;24.08;3.53;;;4.80;99.90;;;;;;5017674;28;20025;-75
2022/02/02 18:21:51;;;;;;;19.85;3.97;;;4.70;99.90;;;;;;5017970;28;20501;-76
2022/02/02 18:24:24;;;;;;;18.23;3.58;;;4.70;99.90;;;;;;5036384;28;20056;-76
2022/02/02 18:27:00;;;;;;;20.92;3.47;;;4.70;99.90;;;;;;5034361;28;20022;-76
2022/02/02 18:29:49;;;;;;;23.70;3.78;;;4.60;99.90;;;;;;5035521;28;20085;-75
2022/02/02 18:32:39;;;;;;;18.85;3.90;;;4.70;99.90;;;;;;5033522;28;20368;-76
2022/02/02 18:35:05;;;;;;;15.90;3.25;;;4.60;99.90;;;;;;5022448;28;20029;-75
2022/02/02 18:46:24;;;;;;;13.52;3.22;;;4.60;99.90;;;;;;5031271;28;20029;-75
2022/02/02 18:51:48;;;;;;;17.30;3.20;;;4.70;99.90;;;;;;5038588;28;20148;-77
2022/02/02 18:54:20;;;;;;;19.33;3.25;;;4.70;99.90;;;;;;5035510;28;20068;-76
2022/02/02 19:55:47;;;;;;;13.73;3.38;;;4.30;99.90;;;;;;5031868;28;20037;-74
2022/02/02 20:11:43;;;;;;;18.60;3.65;;;4.10;99.90;;;;;;5038250;28;20040;-76
2022/02/02 20:14:11;;;;;;;16.25;3.40;;;4.10;99.90;;;;;;5006067;28;20053;-75
2022/02/02 20:16:39;;;;;;;191.82;69.15;;;4.10;99.90;;;;;;5026624;28;21951;-76
2022/02/02 20:19:08;;;;;;;58.20;20.73;;;4.10;99.90;;;;;;5011270;28;20072;-77
2022/02/02 20:21:43;;;;;;;49.50;18.38;;;4.00;99.90;;;;;;5028277;28;20046;-77
2022/02/02 20:24:09;;;;;;;56.08;22.85;;;4.00;99.90;;;;;;5031985;28;20083;-75
2022/02/02 20:26:36;;;;;;;28.63;5.47;;;4.00;99.90;;;;;;5026565;28;20028;-75
2022/02/02 20:29:03;;;;;;;24.83;3.50;;;4.00;99.90;;;;;;5033135;28;20497;-75
2022/02/02 20:31:31;;;;;;;29.73;3.60;;;4.00;99.90;;;;;;5033609;28;20070;-75
2022/02/02 20:33:57;;;;;;;18.08;3.63;;;3.90;99.90;;;;;;5034268;28;20033;-75
2022/02/02 20:36:23;;;;;;;26.10;3.92;;;3.90;99.90;;;;;;5006848;28;20040;-76
2022/02/02 20:38:48;;;;;;;19.08;3.60;;;3.90;99.90;;;;;;5013418;28;20120;-75
2022/02/02 20:41:14;;;;;;;21.88;4.85;;;3.90;99.90;;;;;;5026168;28;20057;-74
2022/02/02 21:05:38;;;;;;;30.55;5.25;;;3.90;99.90;;;;;;5011529;28;20100;-76
2022/02/02 21:08:21;;;;;;;23.70;3.08;;;3.80;99.90;;;;;;5035664;28;20379;-75
2022/02/02 21:10:49;;;;;;;18.75;3.47;;;3.80;99.90;;;;;;5027210;28;20025;-77
2022/02/02 21:15:59;;;;;;;21.75;3.35;;;3.80;99.90;;;;;;5030164;28;20029;-77
2022/02/02 21:18:34;;;;;;;27.98;5.40;;;3.80;99.90;;;;;;5038260;28;20024;-77
2022/02/02 21:21:14;;;;;;;20.05;3.40;;;3.80;99.90;;;;;;5036648;28;20429;-77
2022/02/02 21:29:13;;;;;;;25.38;3.60;;;3.80;99.90;;;;;;5040706;28;20017;-77
2022/02/02 21:31:38;;;;;;;26.88;3.75;;;3.80;99.90;;;;;;5039092;28;20034;-76
2022/02/02 21:34:04;;;;;;;24.45;3.72;;;3.70;99.90;;;;;;5045756;28;20052;-77
2022/02/02 21:36:30;;;;;;;19.52;4.00;;;3.70;99.90;;;;;;5035812;28;20033;-78
2022/02/02 21:39:05;;;;;;;23.55;3.72;;;3.70;99.90;;;;;;5030961;28;20032;-77
2022/02/02 21:41:34;;;;;;;20.05;3.58;;;3.80;99.90;;;;;;5022561;28;20021;-77
2022/02/02 21:44:02;;;;;;;19.95;4.60;;;3.80;99.90;;;;;;5035662;28;20041;-77
2022/02/02 21:46:28;;;;;;;26.55;3.20;;;3.70;99.90;;;;;;5042213;23;20468;-74
2022/02/02 21:48:56;;;;;;;20.33;3.88;;;3.80;99.90;;;;;;5052686;28;20021;-73
2022/02/02 21:51:31;;;;;;;22.70;4.72;;;3.80;99.90;;;;;;5059393;28;21474;-74
2022/02/02 21:53:58;;;;;;;26.08;3.85;;;3.80;99.90;;;;;;5059985;28;20057;-75
2022/02/02 21:56:24;;;;;;;23.50;3.95;;;3.80;99.90;;;;;;5039193;28;20033;-74
2022/02/02 21:58:50;;;;;;;22.35;3.53;;;3.70;99.90;;;;;;5039618;28;20494;-73
2022/02/02 22:01:17;;;;;;;25.60;4.20;;;3.70;99.90;;;;;;5017963;28;20039;-72
2022/02/02 22:03:43;;;;;;;22.70;3.25;;;3.60;99.90;;;;;;5025045;28;20022;-73
2022/02/02 22:06:12;;;;;;;28.48;4.15;;;3.60;99.90;;;;;;5034155;28;20032;-73
2022/02/02 22:08:38;;;;;;;14.05;3.75;;;3.60;99.90;;;;;;5020376;28;20036;-74
2022/02/02 22:11:07;;;;;;;20.88;3.83;;;3.70;99.90;;;;;;5021075;28;20438;-77
2022/02/02 22:13:42;;;;;;;18.50;4.07;;;3.70;99.90;;;;;;5031966;28;20067;-75
2022/02/02 22:16:12;;;;;;;21.23;4.47;;;3.70;99.90;;;;;;5033648;28;20034;-75
2022/02/02 22:18:39;;;;;;;20.63;4.32;;;3.60;99.90;;;;;;5017854;28;20029;-74
2022/02/02 22:21:05;;;;;;;23.80;4.18;;;3.60;99.90;;;;;;5020829;28;20030;-74
2022/02/02 22:23:34;;;;;;;25.13;4.78;;;3.60;99.90;;;;;;5040022;28;20430;-73
2022/02/02 22:26:00;;;;;;;23.48;4.32;;;3.70;99.90;;;;;;5017900;28;20052;-74
2022/02/02 22:28:26;;;;;;;23.90;5.45;;;3.60;99.90;;;;;;5046442;28;20030;-73
2022/02/02 22:30:51;;;;;;;22.42;4.03;;;3.60;99.90;;;;;;5036877;28;20032;-74
2022/02/02 22:33:17;;;;;;;22.92;3.60;;;3.60;99.90;;;;;;5034346;28;20029;-73
2022/02/02 22:35:43;;;;;;;21.17;3.60;;;3.60;99.90;;;;;;5036604;28;20025;-74
2022/02/02 22:38:10;;;;;;;26.13;4.30;;;3.60;99.90;;;;;;5041147;28;20498;-74
2022/02/02 22:40:36;;;;;;;31.55;4.68;;;3.60;99.90;;;;;;5047118;28;20028;-74
2022/02/02 22:43:02;;;;;;;69.90;33.25;;;3.70;99.90;;;;;;5039245;28;20060;-74
2022/02/02 22:45:28;;;;;;;179.48;73.63;;;3.70;99.90;;;;;;5035839;28;20037;-74
2022/02/02 22:47:57;;;;;;;68.05;24.95;;;3.80;99.90;;;;;;5035728;28;20017;-75
2022/02/02 22:50:23;;;;;;;216.85;80.25;;;3.80;99.90;;;;;;5035836;28;20021;-74
2022/02/02 22:52:52;;;;;;;33.88;11.73;;;3.80;99.90;;;;;;5037514;28;20025;-75
2022/02/02 22:55:19;;;;;;;70.28;38.83;;;3.80;99.90;;;;;;5037176;28;20279;-73
2022/02/02 22:57:45;;;;;;;26.23;4.35;;;3.80;99.90;;;;;;5030646;28;20029;-72
2022/02/02 23:00:17;;;;;;;24.58;3.42;;;3.80;99.90;;;;;;5014454;28;20376;-73
2022/02/02 23:05:09;;;;;;;15.43;3.40;;;3.80;99.90;;;;;;5034145;28;20110;-72
2022/02/02 23:07:34;;;;;;;35.45;4.65;;;3.80;99.90;;;;;;5035229;28;20037;-74
2022/02/02 23:10:00;;;;;;;18.77;3.03;;;3.80;99.90;;;;;;5033824;28;20029;-73
2022/02/02 23:12:27;;;;;;;11.95;3.63;;;3.80;99.90;;;;;;5036063;28;20097;-72
2022/02/02 23:14:58;;;;;;;24.80;4.25;;;3.80;99.90;;;;;;5038508;28;20517;-74
2022/02/02 23:17:26;;;;;;;26.95;4.00;;;3.80;99.90;;;;;;5033672;28;20037;-74
2022/02/02 23:19:52;;;;;;;19.95;4.25;;;3.80;99.90;;;;;;5037376;28;20143;-74
2022/02/02 23:22:22;;;;;;;19.63;3.97;;;3.90;99.90;;;;;;5018666;28;20120;-75
2022/02/02 23:24:52;;;;;;;24.25;3.92;;;3.90;99.90;;;;;;5015011;28;20117;-74
2022/02/02 23:27:18;;;;;;;24.23;4.90;;;3.90;99.90;;;;;;5017811;28;20037;-73
2022/02/02 23:29:49;;;;;;;21.85;3.78;;;3.90;99.90;;;;;;5035378;28;20040;-75
2022/02/02 23:32:18;;;;;;;25.05;3.90;;;3.90;99.90;;;;;;5034190;28;20032;-72
2022/02/02 23:34:46;;;;;;;21.02;3.78;;;3.90;99.90;;;;;;5021263;28;20032;-73
2022/02/02 23:37:12;;;;;;;23.13;4.13;;;3.90;99.90;;;;;;5015689;28;20018;-74
2022/02/02 23:39:40;;;;;;;27.15;4.13;;;3.90;99.90;;;;;;5034991;28;20508;-72
2022/02/02 23:42:27;;;;;;;25.13;5.05;;;3.90;99.90;;;;;;5013310;28;20108;-72
2022/02/02 23:44:53;;;;;;;23.30;4.07;;;3.90;99.90;;;;;;5034502;28;20041;-73
2022/02/02 23:47:24;;;;;;;25.33;4.00;;;3.90;99.90;;;;;;5031998;28;20025;-73
2022/02/02 23:49:55;;;;;;;21.60;4.28;;;3.90;99.90;;;;;;5033437;28;20017;-72
2022/02/02 23:52:38;;;;;;;;;;;3.90;99.90;;;;;;5033188;28;20028;-73
2022/02/02 23:55:07;;;;;;;21.25;3.92;;;3.90;99.90;;;;;;5031925;28;19959;-73
2022/02/02 23:58:01;;;;;;;19.73;3.97;;;3.90;99.90;;;;;;5034332;28;20021;-73
